createdAt,value
2023-05-10T00:01:59.968Z,54.18
2023-05-10T00:05:03.016Z,54.18
2023-05-10T00:08:05.961Z,54.19
2023-05-10T00:11:08.836Z,54.39
2023-05-10T00:14:12.564Z,54.47
2023-05-10T00:17:15.337Z,54.72
2023-05-10T00:20:18.555Z,54.88
2023-05-10T00:23:21.536Z,54.96
2023-05-10T00:26:24.288Z,55.13
2023-05-10T00:29:29.379Z,55.09
2023-05-10T00:32:32.370Z,55.21
2023-05-10T00:35:35.366Z,55.16
2023-05-10T00:38:38.135Z,55.33
2023-05-10T00:41:41.494Z,55.44
2023-05-10T00:44:44.482Z,55.62
2023-05-10T00:47:48.509Z,55.84
2023-05-10T00:50:51.441Z,55.77
2023-05-10T00:53:57.090Z,55.90
2023-05-10T00:56:59.970Z,55.98
2023-05-10T01:00:04.980Z,56.00
2023-05-10T01:03:07.925Z,56.27
2023-05-10T01:06:11.285Z,56.22
2023-05-10T01:09:14.153Z,56.31
2023-05-10T01:12:17.018Z,56.39
2023-05-10T01:15:22.193Z,56.47
2023-05-10T01:18:27.247Z,56.61
2023-05-10T01:21:51.652Z,56.68
2023-05-10T01:25:22.178Z,56.63
2023-05-10T01:28:37.250Z,56.81
2023-05-10T01:32:17.622Z,56.85
2023-05-10T01:35:31.492Z,56.93
2023-05-10T01:38:44.111Z,56.98
2023-05-10T01:42:04.467Z,57.10
2023-05-10T01:45:07.850Z,57.26
2023-05-10T01:48:12.274Z,57.30
2023-05-10T01:51:21.598Z,57.37
2023-05-10T01:54:25.800Z,57.58
2023-05-10T01:57:34.669Z,57.56
2023-05-10T02:00:42.808Z,57.42
2023-05-10T02:03:46.583Z,57.66
2023-05-10T02:06:50.643Z,57.49
2023-05-10T02:09:55.571Z,57.59
2023-05-10T02:13:01.242Z,57.55
2023-05-10T02:16:06.226Z,57.78
2023-05-10T02:19:11.073Z,57.60
2023-05-10T02:22:15.653Z,57.89
2023-05-10T02:25:21.133Z,58.28
2023-05-10T02:28:26.077Z,58.45
2023-05-10T02:31:29.082Z,58.88
2023-05-10T02:34:32.857Z,58.97
2023-05-10T02:37:38.503Z,59.16
2023-05-10T02:40:43.570Z,58.90
2023-05-10T02:43:48.088Z,59.10
2023-05-10T02:46:51.101Z,59.03
2023-05-10T02:49:54.588Z,59.29
2023-05-10T02:53:03.168Z,59.98
2023-05-10T02:56:14.413Z,59.79
2023-05-10T02:59:17.401Z,59.57
2023-05-10T03:02:22.229Z,59.86
2023-05-10T03:05:25.545Z,59.86
2023-05-10T03:08:30.562Z,59.74
2023-05-10T03:11:55.413Z,60.04
2023-05-10T03:15:32.425Z,60.64
2023-05-10T03:19:04.514Z,61.03
2023-05-10T03:22:11.933Z,61.32
2023-05-10T03:25:17.829Z,61.84
2023-05-10T03:28:23.075Z,61.65
2023-05-10T03:31:26.550Z,61.89
2023-05-10T03:34:32.412Z,61.69
2023-05-10T03:37:35.943Z,61.14
2023-05-10T03:40:38.952Z,60.67
2023-05-10T03:43:42.241Z,60.26
2023-05-10T03:46:45.069Z,59.74
2023-05-10T03:49:48.028Z,59.39
2023-05-10T03:52:52.977Z,59.22
2023-05-10T03:55:56.962Z,58.64
2023-05-10T03:59:00.192Z,58.16
2023-05-10T04:02:03.740Z,56.99
2023-05-10T04:05:07.335Z,57.02
2023-05-10T04:08:10.344Z,56.60
2023-05-10T04:11:13.833Z,56.40
2023-05-10T04:14:17.517Z,55.46
2023-05-10T04:17:20.293Z,55.28
2023-05-10T04:20:23.259Z,55.09
2023-05-10T04:23:26.148Z,54.32
2023-05-10T04:26:28.953Z,54.00
2023-05-10T04:29:31.949Z,53.44
2023-05-10T04:32:34.801Z,53.39
2023-05-10T04:35:38.015Z,52.79
2023-05-10T04:38:41.105Z,52.38
2023-05-10T04:41:43.847Z,51.95
2023-05-10T04:44:46.559Z,51.59
2023-05-10T04:47:49.332Z,50.93
2023-05-10T04:50:52.549Z,50.58
2023-05-10T04:54:05.199Z,49.91
2023-05-10T04:57:09.063Z,49.71
2023-05-10T05:00:12.608Z,49.35
2023-05-10T05:03:16.014Z,49.23
2023-05-10T05:06:18.885Z,48.39
2023-05-10T05:09:21.667Z,48.00
2023-05-10T05:12:24.513Z,47.02
2023-05-10T05:15:27.548Z,47.53
2023-05-10T05:18:30.282Z,47.59
2023-05-10T05:21:33.563Z,47.04
2023-05-10T05:24:39.144Z,46.65
2023-05-10T05:27:42.238Z,46.98
2023-05-10T05:30:45.425Z,46.19
2023-05-10T05:33:48.212Z,45.99
2023-05-10T05:36:51.114Z,45.77
2023-05-10T05:39:55.471Z,45.58
2023-05-10T05:42:58.190Z,45.80
2023-05-10T05:46:01.045Z,45.56
2023-05-10T05:49:03.871Z,45.23
2023-05-10T05:52:06.654Z,44.40
2023-05-10T05:55:09.914Z,44.22
2023-05-10T05:58:12.984Z,44.29
2023-05-10T06:01:15.707Z,43.53
2023-05-10T06:04:18.543Z,42.99
2023-05-10T06:07:21.464Z,44.11
2023-05-10T06:10:24.249Z,43.33
2023-05-10T06:13:33.166Z,42.36
2023-05-10T06:16:36.313Z,41.81
2023-05-10T06:19:39.107Z,41.49
2023-05-10T06:22:42.348Z,41.23
2023-05-10T06:25:45.039Z,40.79
2023-05-10T06:28:47.777Z,41.40
2023-05-10T06:31:50.622Z,41.08
2023-05-10T06:34:53.441Z,41.63
2023-05-10T06:37:56.540Z,40.87
2023-05-10T06:40:59.271Z,40.05
2023-05-10T06:44:02.032Z,40.13
2023-05-10T06:47:04.942Z,40.43
2023-05-10T06:50:09.497Z,40.84
2023-05-10T06:53:13.120Z,40.46
2023-05-10T06:56:15.870Z,40.85
2023-05-10T06:59:20.188Z,39.84
2023-05-10T07:02:23.813Z,40.83
2023-05-10T07:05:28.865Z,40.84
2023-05-10T07:08:32.860Z,40.82
2023-05-10T07:11:36.225Z,39.95
2023-05-10T07:14:38.995Z,39.83
2023-05-10T07:17:43.206Z,39.55
2023-05-10T07:20:47.765Z,38.71
2023-05-10T07:23:51.184Z,39.52
2023-05-10T07:26:53.900Z,38.91
2023-05-10T07:29:57.592Z,38.73
2023-05-10T07:33:00.391Z,36.73
2023-05-10T07:36:03.565Z,37.59
2023-05-10T07:39:06.326Z,38.12
2023-05-10T07:42:09.473Z,38.21
2023-05-10T07:45:12.434Z,37.54
2023-05-10T07:48:15.168Z,37.78
2023-05-10T07:51:18.026Z,37.29
2023-05-10T07:54:20.756Z,38.40
2023-05-10T07:57:23.871Z,38.25
2023-05-10T08:00:26.697Z,38.14
2023-05-10T08:03:29.476Z,38.12
2023-05-10T08:06:32.438Z,36.83
2023-05-10T08:09:35.268Z,37.53
2023-05-10T08:12:39.297Z,38.72
2023-05-10T08:15:42.267Z,37.75
2023-05-10T08:18:47.998Z,37.55
2023-05-10T08:21:50.955Z,38.21
2023-05-10T08:24:53.733Z,38.63
2023-05-10T08:27:56.476Z,38.38
2023-05-10T08:30:59.295Z,38.82
2023-05-10T08:34:02.334Z,38.67
2023-05-10T08:37:05.274Z,39.50
2023-05-10T08:40:12.491Z,37.42
2023-05-10T08:43:18.055Z,37.49
2023-05-10T08:46:23.048Z,37.76
2023-05-10T08:49:31.834Z,38.28
2023-05-10T08:52:40.333Z,37.56
2023-05-10T08:55:43.882Z,37.37
2023-05-10T08:58:47.082Z,38.18
2023-05-10T09:01:51.642Z,36.97
2023-05-10T09:04:54.547Z,36.84
2023-05-10T09:07:57.769Z,36.94
2023-05-10T09:11:02.499Z,37.85
2023-05-10T09:14:05.481Z,37.05
2023-05-10T09:17:08.541Z,37.56
2023-05-10T09:20:11.825Z,37.02
2023-05-10T09:23:14.597Z,37.15
2023-05-10T09:26:17.349Z,35.95
2023-05-10T09:29:20.187Z,37.29
2023-05-10T09:32:24.061Z,36.92
2023-05-10T09:35:30.145Z,34.82
2023-05-10T09:38:46.388Z,34.81
2023-05-10T09:41:49.513Z,34.13
2023-05-10T09:44:52.284Z,34.01
2023-05-10T09:47:56.144Z,34.62
2023-05-10T09:50:59.350Z,33.69
2023-05-10T09:54:20.218Z,35.34
2023-05-10T09:57:24.162Z,34.81
2023-05-10T10:00:27.407Z,34.32
2023-05-10T10:03:31.301Z,34.60
2023-05-10T10:06:38.735Z,34.59
2023-05-10T10:09:41.803Z,34.53
2023-05-10T10:12:45.709Z,33.94
2023-05-10T10:15:52.057Z,34.01
2023-05-10T10:18:55.674Z,34.67
2023-05-10T10:21:59.963Z,34.38
2023-05-10T10:25:03.125Z,34.66
2023-05-10T10:28:19.725Z,32.82
2023-05-10T10:31:33.497Z,33.75
2023-05-10T10:34:36.680Z,32.99
2023-05-10T10:37:48.343Z,33.11
2023-05-10T10:41:13.001Z,32.92
2023-05-10T10:44:40.194Z,33.15
2023-05-10T10:47:44.262Z,32.68
2023-05-10T10:50:47.825Z,32.22
2023-05-10T10:53:50.616Z,32.67
2023-05-10T10:57:14.606Z,33.27
2023-05-10T11:00:24.826Z,33.28
2023-05-10T11:03:30.012Z,33.95
2023-05-10T11:06:34.715Z,33.73
2023-05-10T11:09:41.673Z,32.10
2023-05-10T11:13:05.395Z,32.54
2023-05-10T11:16:13.512Z,32.19
2023-05-10T11:19:17.868Z,32.75
2023-05-10T11:22:20.675Z,32.43
2023-05-10T11:25:29.357Z,33.06
2023-05-10T11:28:33.282Z,33.26
2023-05-10T11:31:36.555Z,31.95
2023-05-10T11:34:39.976Z,31.74
2023-05-10T11:37:44.691Z,32.76
2023-05-10T11:40:47.596Z,33.46
2023-05-10T11:43:55.747Z,32.38
2023-05-10T11:47:02.626Z,32.53
2023-05-10T11:50:06.673Z,32.29
2023-05-10T11:53:09.543Z,31.47
2023-05-10T11:56:12.581Z,32.92
2023-05-10T11:59:16.184Z,32.55
2023-05-10T12:02:19.205Z,32.41
2023-05-10T12:05:22.580Z,32.44
2023-05-10T12:08:28.273Z,31.16
2023-05-10T12:11:31.236Z,31.68
2023-05-10T12:14:36.763Z,32.36
2023-05-10T12:17:43.431Z,32.24
2023-05-10T12:20:46.507Z,31.87
2023-05-10T12:23:53.855Z,31.70
2023-05-10T12:26:56.576Z,32.16
2023-05-10T12:30:01.006Z,33.01
2023-05-10T12:33:11.157Z,32.35
2023-05-10T12:36:16.152Z,31.45
2023-05-10T12:39:19.006Z,31.69
2023-05-10T12:42:21.802Z,32.84
2023-05-10T12:45:24.611Z,32.01
2023-05-10T12:48:29.747Z,32.87
2023-05-10T12:51:32.789Z,32.49
2023-05-10T12:54:35.654Z,32.25
2023-05-10T12:57:38.364Z,33.27
2023-05-10T13:00:41.228Z,32.43
2023-05-10T13:03:46.740Z,32.12
2023-05-10T13:06:49.514Z,32.99
2023-05-10T13:09:52.475Z,31.88
2023-05-10T13:12:55.266Z,32.29
2023-05-10T13:15:58.000Z,31.57
2023-05-10T13:19:00.976Z,31.65
2023-05-10T13:22:04.093Z,31.46
2023-05-10T13:25:07.150Z,32.38
2023-05-10T13:28:10.101Z,31.56
2023-05-10T13:31:13.004Z,32.27
2023-05-10T13:34:16.109Z,32.27
2023-05-10T13:37:18.894Z,31.93
2023-05-10T13:40:21.691Z,32.54
2023-05-10T13:43:25.088Z,31.30
2023-05-10T13:46:27.894Z,31.57
2023-05-10T13:49:30.688Z,30.95
2023-05-10T13:52:33.559Z,31.21
2023-05-10T13:58:59.367Z,32.63
2023-05-10T14:02:04.929Z,32.54
2023-05-10T14:05:08.600Z,32.11
2023-05-10T14:08:12.065Z,30.66
2023-05-10T14:11:15.408Z,31.04
2023-05-10T14:14:18.216Z,31.40
2023-05-10T14:17:21.023Z,31.24
2023-05-10T14:20:23.772Z,31.22
2023-05-10T14:23:26.986Z,31.62
2023-05-10T14:26:29.992Z,32.65
2023-05-10T14:29:33.175Z,32.93
2023-05-10T14:32:37.625Z,32.18
2023-05-10T14:35:40.738Z,31.54
2023-05-10T14:38:43.511Z,31.19
2023-05-10T14:41:46.783Z,31.30
2023-05-10T14:44:49.748Z,31.17
2023-05-10T14:47:52.655Z,30.66
2023-05-10T14:50:55.675Z,31.12
2023-05-10T14:53:58.406Z,31.39
2023-05-10T14:57:01.714Z,31.65
2023-05-10T15:00:05.393Z,30.82
2023-05-10T15:03:09.114Z,31.80
2023-05-10T15:06:14.934Z,31.77
2023-05-10T15:09:17.827Z,31.43
2023-05-10T15:12:21.422Z,32.41
2023-05-10T15:15:24.603Z,31.93
2023-05-10T15:18:27.403Z,30.65
2023-05-10T15:21:31.834Z,31.04
2023-05-10T15:24:35.372Z,30.59
2023-05-10T15:27:38.221Z,30.62
2023-05-10T15:30:41.190Z,30.74
2023-05-10T15:33:44.111Z,31.13
2023-05-10T15:36:46.924Z,31.46
2023-05-10T15:39:50.031Z,31.54
2023-05-10T15:42:52.781Z,30.95
2023-05-10T15:45:55.577Z,30.37
2023-05-10T15:48:59.731Z,31.53
2023-05-10T15:52:02.691Z,31.32
2023-05-10T15:55:12.747Z,30.93
2023-05-10T15:58:15.778Z,30.79
2023-05-10T16:01:18.688Z,31.83
2023-05-10T16:04:23.642Z,32.01
2023-05-10T16:07:26.462Z,31.90
2023-05-10T16:10:33.195Z,32.22
2023-05-10T16:13:36.008Z,32.84
2023-05-10T16:16:38.932Z,33.20
2023-05-10T16:19:41.877Z,32.57
2023-05-10T16:22:44.714Z,32.65
2023-05-10T16:30:11.539Z,32.73
2023-05-10T16:33:14.602Z,32.50
2023-05-10T16:36:17.393Z,32.52
2023-05-10T16:39:20.183Z,32.86
2023-05-10T16:42:24.268Z,33.24
2023-05-10T16:45:27.067Z,33.14
2023-05-10T16:48:29.961Z,32.99
2023-05-10T16:51:32.734Z,33.56
2023-05-10T16:54:35.650Z,34.18
2023-05-10T16:57:38.470Z,34.46
2023-05-10T17:00:41.459Z,34.37
2023-05-10T17:03:44.318Z,34.75
2023-05-10T17:06:47.244Z,34.80
2023-05-10T17:09:50.012Z,34.90
2023-05-10T17:12:53.763Z,34.99
2023-05-10T17:15:57.070Z,35.12
2023-05-10T17:19:00.024Z,34.89
2023-05-10T17:22:03.095Z,34.37
2023-05-10T17:25:06.625Z,34.92
2023-05-10T17:28:09.455Z,35.34
2023-05-10T17:31:12.252Z,35.36
2023-05-10T17:34:15.057Z,35.27
2023-05-10T17:37:18.028Z,35.80
2023-05-10T17:40:21.002Z,35.90
2023-05-10T17:43:23.980Z,36.12
2023-05-10T17:46:26.750Z,36.03
2023-05-10T17:49:29.708Z,36.40
2023-05-10T17:52:33.719Z,36.64
2023-05-10T17:55:39.330Z,36.96
2023-05-10T17:58:42.149Z,37.02
2023-05-10T18:01:44.931Z,37.10
2023-05-10T18:04:49.376Z,37.28
2023-05-10T18:07:52.276Z,37.47
2023-05-10T18:10:55.144Z,37.77
2023-05-10T18:13:58.187Z,37.96
2023-05-10T18:17:01.076Z,38.10
2023-05-10T18:20:04.530Z,38.06
2023-05-10T18:23:07.523Z,38.00
2023-05-10T18:26:10.334Z,38.50
2023-05-10T18:29:13.110Z,38.58
2023-05-10T18:32:16.409Z,38.68
2023-05-10T18:35:19.520Z,38.96
2023-05-10T18:38:22.621Z,39.21
2023-05-10T18:41:26.950Z,39.36
2023-05-10T18:44:29.684Z,39.71
2023-05-10T18:47:32.416Z,39.90
2023-05-10T18:50:35.280Z,40.21
2023-05-10T18:53:38.701Z,40.21
2023-05-10T18:56:47.538Z,40.29
2023-05-10T18:59:50.361Z,40.72
2023-05-10T19:02:53.756Z,41.28
2023-05-10T19:05:56.683Z,41.76
2023-05-10T19:09:00.104Z,41.65
2023-05-10T19:12:02.984Z,42.08
2023-05-10T19:15:06.603Z,42.03
2023-05-10T19:18:09.767Z,42.35
2023-05-10T19:21:12.855Z,42.68
2023-05-10T19:24:15.676Z,42.90
2023-05-10T19:27:18.591Z,43.55
2023-05-10T19:30:21.520Z,43.93
2023-05-10T19:33:24.239Z,43.96
2023-05-10T19:36:27.121Z,44.35
2023-05-10T19:39:32.566Z,44.56
2023-05-10T19:42:35.512Z,44.65
2023-05-10T19:45:38.292Z,44.68
2023-05-10T19:48:42.074Z,44.99
2023-05-10T19:51:44.809Z,45.44
2023-05-10T19:54:47.539Z,45.78
2023-05-10T19:57:50.694Z,46.02
2023-05-10T20:00:53.476Z,46.19
2023-05-10T20:03:57.051Z,45.86
2023-05-10T20:06:59.897Z,45.92
2023-05-10T20:10:03.381Z,45.76
2023-05-10T20:13:06.105Z,45.45
2023-05-10T20:16:08.960Z,45.32
2023-05-10T20:19:12.377Z,45.39
2023-05-10T20:22:15.306Z,45.19
2023-05-10T20:25:18.997Z,45.17
2023-05-10T20:28:23.977Z,45.24
2023-05-10T20:31:26.833Z,45.22
2023-05-10T20:34:30.018Z,45.42
2023-05-10T20:37:32.751Z,45.30
2023-05-10T20:40:36.674Z,45.32
2023-05-10T20:43:39.547Z,45.43
2023-05-10T20:46:42.913Z,45.31
2023-05-10T20:49:45.798Z,45.49
2023-05-10T20:52:51.010Z,45.53
2023-05-10T20:55:53.895Z,45.70
2023-05-10T20:58:56.869Z,45.89
2023-05-10T21:02:00.005Z,45.57
2023-05-10T21:05:02.958Z,45.73
2023-05-10T21:08:06.184Z,45.65
2023-05-10T21:11:08.967Z,46.03
2023-05-10T21:14:11.689Z,45.89
2023-05-10T21:17:14.747Z,45.94
2023-05-10T21:20:17.764Z,45.89
2023-05-10T21:23:20.837Z,46.18
2023-05-10T21:26:23.707Z,45.96
2023-05-10T21:29:27.402Z,46.04
2023-05-10T21:32:30.200Z,46.21
2023-05-10T21:35:33.036Z,46.23
2023-05-10T21:38:35.861Z,46.29
2023-05-10T21:41:38.609Z,46.32
2023-05-10T21:44:41.370Z,46.30
2023-05-10T21:47:44.319Z,46.55
2023-05-10T21:50:47.939Z,46.45
2023-05-10T21:53:50.956Z,46.59
2023-05-10T21:56:53.734Z,46.73
2023-05-10T21:59:56.742Z,46.68
2023-05-10T22:02:59.590Z,46.42
2023-05-10T22:06:02.467Z,46.89
2023-05-10T22:09:05.307Z,46.82
2023-05-10T22:12:08.182Z,47.19
2023-05-10T22:15:11.559Z,47.10
2023-05-10T22:18:14.284Z,47.25
2023-05-10T22:21:17.196Z,47.46
2023-05-10T22:24:20.028Z,47.71
2023-05-10T22:27:22.932Z,47.54
2023-05-10T22:30:25.858Z,47.85
2023-05-10T22:33:28.741Z,48.12
2023-05-10T22:36:32.505Z,48.17
2023-05-10T22:39:35.567Z,48.38
2023-05-10T22:42:38.379Z,48.37
2023-05-10T22:45:41.155Z,48.58
2023-05-10T22:48:43.881Z,48.60
2023-05-10T22:51:46.715Z,48.55
2023-05-10T22:54:49.734Z,48.62
2023-05-10T22:57:52.709Z,48.79
2023-05-10T23:00:55.969Z,48.62
2023-05-10T23:03:59.588Z,48.79
2023-05-10T23:07:02.423Z,49.06
2023-05-10T23:10:05.708Z,49.59
2023-05-10T23:13:08.452Z,49.39
2023-05-10T23:16:11.318Z,49.69
2023-05-10T23:19:14.266Z,49.65
2023-05-10T23:22:17.042Z,49.81
2023-05-10T23:25:19.773Z,49.96
2023-05-10T23:28:22.507Z,50.11
2023-05-10T23:31:25.351Z,50.55
2023-05-10T23:34:28.146Z,50.37
2023-05-10T23:37:31.099Z,50.24
2023-05-10T23:40:35.531Z,50.31
2023-05-10T23:43:38.312Z,50.49
2023-05-10T23:46:41.165Z,50.54
2023-05-10T23:49:44.088Z,50.97
2023-05-10T23:52:46.870Z,50.82
2023-05-10T23:55:50.279Z,51.00
2023-05-10T23:58:53.007Z,51.03
